Alta, Iowa
Current Conditions -  °F | °C
As of 11:55 PM on Wednesday 22 Oct 2014 (Local Time) from KSLB Reporting Station
Overcast Overcast  
Wind Chill: 55°   Ceiling: 6500
Heat Index: 55°   Visibility: 7mi
Dew Point: 55°   Wind: 12mph
Humidity: 100%   Direction: 170°S
Pressure: 30.04"   Gusts: NA
Location:  42.67°N, 95.29°W
Report Text: KSLB 230455Z AUTO 17010KT 7SM FEW047 BKN065 OVC075 13/13 A3004 RMK AO2
Loading
Personal Weather Stations






























Interactive Weather Map
Tropical Storm Tracking
New forecast layout! Learn more

10-Day Weather Forecast

Advertisements
Track Severe Weather on mobile